Portada
METAR-TAF:

METAR-TAF

Aeroports :

Aktobe, Kazakhstan

latitud: 50-17N, longitud: 057-09E, altitud: 227 m

Observació

L'informe es va fer fa 11 minuts, a les 17:00 UTC
Vent 10 kt del Sud-Oest
Temperatura 8°C
Humitat 76%
Pressió 1006 hPa
Visibilitat 10 km o més
sense núvols per sota de 1500 mi sense presència de cumulonimbus.

METAR: UATT 201700Z 23005MPS CAVOK 08/04 Q1006 R31/19//60 NOSIG RMK QFE735/0980

Hora: 22:11 (17:11 UTC)

Pronòstic

L'informe es va fer fa 6 hores i 8 minuts, a les 11:03 UTC
Pronòstic vàlid del 20 a les 12 UTC al 21 a les 12 UTC
Vent 14 kt del Oest/Sud-Oest
Visibilitat: 3100 m
Cel cobert a una alçada de 1100 ft
pluja, boirina
Temporalment
l' 20 a les 12 UTC al 20 a les 16 UTC
Vent 25 kt del Oest
Cel ennuvolat a una alçada de 600 ft
Evolucionant progressivament
l' 21 a les 06 UTC al 21 a les 08 UTC
Vent 19 kt del Oest/Nord-Oest

TAF: UATT 201103Z 2012/2112 24007MPS 3100 -RA BR OVC011 TX12/2111Z TN06/2102Z TEMPO 2012/2016 27013MPS BKN006 BECMG 2106/2108 30010MPS

Observacions i pronòstics meteorològics de més de 4000 aeroports (METAR i TAF).

Les estacions disponibles són els punts grocs i vermells al mapa.

Posi el ratolí al punt desitjat per veure el nom de l'estació.

Feu clic per veure les observacions i els pronòstics meteorològics.

Per canviar el mapa: feu clic els botons verds amb una creu de color negre per apropar; al botó verd amb un guió per allunyar la imatge; o en les fletxes verdes per a mapes adjacents.


METAR-TAF: